sensor_id;sensor_type;location;lat;lon;timestamp;P1;durP1;ratioP1;P2;durP2;ratioP2
84084;SDS011;74175;41.730;44.734;2024-02-21T00:14:17;4.75;;;1.23;;
84084;SDS011;74175;41.730;44.734;2024-02-21T00:16:43;4.83;;;1.60;;
84084;SDS011;74175;41.730;44.734;2024-02-21T00:19:10;3.95;;;1.27;;
84084;SDS011;74175;41.730;44.734;2024-02-21T00:21:36;4.95;;;1.20;;
84084;SDS011;74175;41.730;44.734;2024-02-21T00:24:02;4.88;;;1.10;;
84084;SDS011;74175;41.730;44.734;2024-02-21T00:26:28;3.88;;;1.10;;
84084;SDS011;74175;41.730;44.734;2024-02-21T00:28:55;3.40;;;0.80;;
84084;SDS011;74175;41.730;44.734;2024-02-21T00:31:24;4.70;;;1.10;;
84084;SDS011;74175;41.730;44.734;2024-02-21T00:33:50;4.10;;;1.20;;
84084;SDS011;74175;41.730;44.734;2024-02-21T00:36:16;3.95;;;1.13;;
84084;SDS011;74175;41.730;44.734;2024-02-21T00:38:42;4.93;;;1.52;;
84084;SDS011;74175;41.730;44.734;2024-02-21T00:41:08;5.22;;;1.77;;
84084;SDS011;74175;41.730;44.734;2024-02-21T00:43:34;4.75;;;1.50;;
84084;SDS011;74175;41.730;44.734;2024-02-21T00:46:00;4.10;;;1.03;;
84084;SDS011;74175;41.730;44.734;2024-02-21T00:48:26;3.50;;;0.93;;
84084;SDS011;74175;41.730;44.734;2024-02-21T00:50:52;3.60;;;1.00;;
84084;SDS011;74175;41.730;44.734;2024-02-21T00:53:18;4.07;;;1.00;;
84084;SDS011;74175;41.730;44.734;2024-02-21T00:55:45;3.42;;;0.80;;
84084;SDS011;74175;41.730;44.734;2024-02-21T00:58:11;4.85;;;1.35;;
84084;SDS011;74175;41.730;44.734;2024-02-21T01:00:39;4.73;;;1.53;;
84084;SDS011;74175;41.730;44.734;2024-02-21T01:03:05;4.72;;;1.60;;
84084;SDS011;74175;41.730;44.734;2024-02-21T01:05:31;4.90;;;1.33;;
84084;SDS011;74175;41.730;44.734;2024-02-21T01:07:58;3.90;;;1.10;;
84084;SDS011;74175;41.730;44.734;2024-02-21T01:10:24;4.03;;;1.10;;
84084;SDS011;74175;41.730;44.734;2024-02-21T01:12:50;4.60;;;1.20;;
84084;SDS011;74175;41.730;44.734;2024-02-21T01:15:16;4.63;;;1.45;;
84084;SDS011;74175;41.730;44.734;2024-02-21T01:17:43;4.63;;;1.30;;
84084;SDS011;74175;41.730;44.734;2024-02-21T01:20:09;3.80;;;1.00;;
84084;SDS011;74175;41.730;44.734;2024-02-21T01:22:35;4.03;;;1.13;;
84084;SDS011;74175;41.730;44.734;2024-02-21T01:25:01;7.27;;;1.10;;
84084;SDS011;74175;41.730;44.734;2024-02-21T01:27:28;4.47;;;1.40;;
84084;SDS011;74175;41.730;44.734;2024-02-21T01:29:54;4.25;;;1.30;;
84084;SDS011;74175;41.730;44.734;2024-02-21T01:32:21;6.22;;;1.40;;
84084;SDS011;74175;41.730;44.734;2024-02-21T01:34:50;4.60;;;1.40;;
84084;SDS011;74175;41.730;44.734;2024-02-21T01:37:16;4.13;;;1.10;;
84084;SDS011;74175;41.730;44.734;2024-02-21T01:39:42;4.10;;;1.20;;
84084;SDS011;74175;41.730;44.734;2024-02-21T01:42:08;3.63;;;0.80;;
84084;SDS011;74175;41.730;44.734;2024-02-21T01:44:34;3.80;;;1.27;;
84084;SDS011;74175;41.730;44.734;2024-02-21T01:47:02;3.78;;;1.10;;
84084;SDS011;74175;41.730;44.734;2024-02-21T01:49:28;4.75;;;1.25;;
84084;SDS011;74175;41.730;44.734;2024-02-21T01:51:54;4.23;;;1.13;;
84084;SDS011;74175;41.730;44.734;2024-02-21T01:54:23;4.32;;;1.20;;
84084;SDS011;74175;41.730;44.734;2024-02-21T01:56:49;4.82;;;1.27;;
84084;SDS011;74175;41.730;44.734;2024-02-21T01:59:15;4.35;;;1.08;;
84084;SDS011;74175;41.730;44.734;2024-02-21T02:01:42;3.67;;;1.20;;
84084;SDS011;74175;41.730;44.734;2024-02-21T02:04:09;4.57;;;1.30;;
84084;SDS011;74175;41.730;44.734;2024-02-21T02:06:35;4.00;;;1.10;;
84084;SDS011;74175;41.730;44.734;2024-02-21T02:09:01;4.30;;;0.90;;
84084;SDS011;74175;41.730;44.734;2024-02-21T02:11:27;4.95;;;1.52;;
84084;SDS011;74175;41.730;44.734;2024-02-21T02:13:54;4.25;;;1.38;;
84084;SDS011;74175;41.730;44.734;2024-02-21T02:16:20;5.35;;;1.80;;
84084;SDS011;74175;41.730;44.734;2024-02-21T02:18:46;5.40;;;1.67;;
84084;SDS011;74175;41.730;44.734;2024-02-21T02:21:16;4.60;;;1.37;;
84084;SDS011;74175;41.730;44.734;2024-02-21T02:23:58;4.82;;;1.60;;
84084;SDS011;74175;41.730;44.734;2024-02-21T02:26:24;4.60;;;1.50;;
84084;SDS011;74175;41.730;44.734;2024-02-21T02:28:51;4.63;;;1.48;;
84084;SDS011;74175;41.730;44.734;2024-02-21T02:31:17;4.45;;;1.30;;
84084;SDS011;74175;41.730;44.734;2024-02-21T02:33:46;5.03;;;1.25;;
84084;SDS011;74175;41.730;44.734;2024-02-21T02:36:13;4.47;;;1.30;;
84084;SDS011;74175;41.730;44.734;2024-02-21T02:38:40;4.97;;;1.63;;
84084;SDS011;74175;41.730;44.734;2024-02-21T02:41:06;5.10;;;1.50;;
84084;SDS011;74175;41.730;44.734;2024-02-21T02:43:32;7.93;;;2.50;;
84084;SDS011;74175;41.730;44.734;2024-02-21T02:46:02;8.20;;;2.90;;
84084;SDS011;74175;41.730;44.734;2024-02-21T02:48:29;6.25;;;2.72;;
84084;SDS011;74175;41.730;44.734;2024-02-21T02:50:55;7.57;;;2.77;;
84084;SDS011;74175;41.730;44.734;2024-02-21T02:53:21;8.73;;;3.20;;
84084;SDS011;74175;41.730;44.734;2024-02-21T02:55:47;7.80;;;3.10;;
84084;SDS011;74175;41.730;44.734;2024-02-21T02:58:13;9.82;;;3.35;;
84084;SDS011;74175;41.730;44.734;2024-02-21T03:00:39;8.10;;;2.80;;
84084;SDS011;74175;41.730;44.734;2024-02-21T03:03:05;8.25;;;3.67;;
84084;SDS011;74175;41.730;44.734;2024-02-21T03:05:33;8.70;;;3.30;;
84084;SDS011;74175;41.730;44.734;2024-02-21T03:07:59;9.90;;;3.55;;
84084;SDS011;74175;41.730;44.734;2024-02-21T03:10:25;9.63;;;4.03;;
84084;SDS011;74175;41.730;44.734;2024-02-21T03:12:52;11.65;;;3.40;;
84084;SDS011;74175;41.730;44.734;2024-02-21T03:15:20;9.05;;;3.70;;
84084;SDS011;74175;41.730;44.734;2024-02-21T03:17:47;14.32;;;5.32;;
84084;SDS011;74175;41.730;44.734;2024-02-21T03:20:13;13.27;;;5.50;;
84084;SDS011;74175;41.730;44.734;2024-02-21T03:22:39;15.73;;;6.25;;
84084;SDS011;74175;41.730;44.734;2024-02-21T03:25:06;15.32;;;6.00;;
84084;SDS011;74175;41.730;44.734;2024-02-21T03:27:34;14.30;;;5.95;;
84084;SDS011;74175;41.730;44.734;2024-02-21T03:30:00;15.18;;;5.65;;
84084;SDS011;74175;41.730;44.734;2024-02-21T03:32:26;15.23;;;5.13;;
84084;SDS011;74175;41.730;44.734;2024-02-21T03:34:53;13.47;;;5.57;;
84084;SDS011;74175;41.730;44.734;2024-02-21T03:37:20;18.95;;;6.53;;
84084;SDS011;74175;41.730;44.734;2024-02-21T03:39:46;15.10;;;6.35;;
84084;SDS011;74175;41.730;44.734;2024-02-21T03:42:13;15.35;;;6.07;;
84084;SDS011;74175;41.730;44.734;2024-02-21T03:44:39;19.30;;;7.78;;
84084;SDS011;74175;41.730;44.734;2024-02-21T03:47:05;16.42;;;6.40;;
84084;SDS011;74175;41.730;44.734;2024-02-21T03:49:31;19.77;;;8.30;;
84084;SDS011;74175;41.730;44.734;2024-02-21T03:51:57;21.13;;;8.30;;
84084;SDS011;74175;41.730;44.734;2024-02-21T03:54:23;17.35;;;6.80;;
84084;SDS011;74175;41.730;44.734;2024-02-21T03:56:50;20.10;;;7.50;;
84084;SDS011;74175;41.730;44.734;2024-02-21T03:59:16;17.25;;;7.32;;
84084;SDS011;74175;41.730;44.734;2024-02-21T04:01:42;14.77;;;6.22;;
84084;SDS011;74175;41.730;44.734;2024-02-21T04:04:08;15.90;;;6.87;;
84084;SDS011;74175;41.730;44.734;2024-02-21T04:06:35;18.37;;;7.37;;
84084;SDS011;74175;41.730;44.734;2024-02-21T04:11:52;20.70;;;7.57;;
84084;SDS011;74175;41.730;44.734;2024-02-21T04:14:18;22.17;;;8.38;;
84084;SDS011;74175;41.730;44.734;2024-02-21T04:16:44;21.58;;;7.53;;
84084;SDS011;74175;41.730;44.734;2024-02-21T04:19:10;20.03;;;7.60;;
84084;SDS011;74175;41.730;44.734;2024-02-21T04:21:36;20.48;;;7.88;;
84084;SDS011;74175;41.730;44.734;2024-02-21T04:24:03;22.13;;;8.60;;
84084;SDS011;74175;41.730;44.734;2024-02-21T04:26:33;16.30;;;6.75;;
84084;SDS011;74175;41.730;44.734;2024-02-21T04:29:00;16.05;;;6.22;;
84084;SDS011;74175;41.730;44.734;2024-02-21T04:31:29;14.80;;;4.85;;
84084;SDS011;74175;41.730;44.734;2024-02-21T04:33:56;19.10;;;7.13;;
84084;SDS011;74175;41.730;44.734;2024-02-21T04:36:22;19.45;;;7.55;;
84084;SDS011;74175;41.730;44.734;2024-02-21T04:38:57;22.60;;;8.45;;
84084;SDS011;74175;41.730;44.734;2024-02-21T04:41:24;15.95;;;6.43;;
84084;SDS011;74175;41.730;44.734;2024-02-21T04:43:50;22.57;;;7.90;;
84084;SDS011;74175;41.730;44.734;2024-02-21T04:46:16;14.75;;;6.47;;
84084;SDS011;74175;41.730;44.734;2024-02-21T04:48:42;18.23;;;6.20;;
84084;SDS011;74175;41.730;44.734;2024-02-21T04:51:12;22.67;;;9.02;;
84084;SDS011;74175;41.730;44.734;2024-02-21T04:53:39;16.13;;;7.20;;
84084;SDS011;74175;41.730;44.734;2024-02-21T04:56:05;18.27;;;6.90;;
84084;SDS011;74175;41.730;44.734;2024-02-21T04:58:39;18.75;;;7.80;;
84084;SDS011;74175;41.730;44.734;2024-02-21T05:01:05;16.70;;;6.95;;
84084;SDS011;74175;41.730;44.734;2024-02-21T05:03:31;16.30;;;7.13;;
84084;SDS011;74175;41.730;44.734;2024-02-21T05:05:59;20.77;;;7.90;;
84084;SDS011;74175;41.730;44.734;2024-02-21T05:08:25;18.98;;;7.50;;
84084;SDS011;74175;41.730;44.734;2024-02-21T05:10:51;22.07;;;9.63;;
84084;SDS011;74175;41.730;44.734;2024-02-21T05:13:17;22.23;;;8.60;;
84084;SDS011;74175;41.730;44.734;2024-02-21T05:15:43;20.55;;;7.38;;
84084;SDS011;74175;41.730;44.734;2024-02-21T05:18:09;28.30;;;9.60;;
84084;SDS011;74175;41.730;44.734;2024-02-21T05:20:36;17.77;;;7.57;;
84084;SDS011;74175;41.730;44.734;2024-02-21T05:23:02;23.92;;;8.23;;
84084;SDS011;74175;41.730;44.734;2024-02-21T05:25:28;22.00;;;8.73;;
84084;SDS011;74175;41.730;44.734;2024-02-21T05:27:54;15.18;;;6.00;;
84084;SDS011;74175;41.730;44.734;2024-02-21T05:30:22;25.88;;;9.52;;
84084;SDS011;74175;41.730;44.734;2024-02-21T05:32:48;22.63;;;7.72;;
84084;SDS011;74175;41.730;44.734;2024-02-21T05:35:14;23.27;;;9.02;;
84084;SDS011;74175;41.730;44.734;2024-02-21T05:37:41;22.58;;;8.95;;
84084;SDS011;74175;41.730;44.734;2024-02-21T05:40:07;19.15;;;8.18;;
84084;SDS011;74175;41.730;44.734;2024-02-21T05:42:34;22.60;;;8.40;;
84084;SDS011;74175;41.730;44.734;2024-02-21T05:45:00;18.73;;;7.57;;
84084;SDS011;74175;41.730;44.734;2024-02-21T05:47:26;17.40;;;7.13;;
84084;SDS011;74175;41.730;44.734;2024-02-21T05:49:52;18.45;;;7.40;;
84084;SDS011;74175;41.730;44.734;2024-02-21T05:52:19;20.00;;;7.85;;
84084;SDS011;74175;41.730;44.734;2024-02-21T05:54:46;24.65;;;9.13;;
84084;SDS011;74175;41.730;44.734;2024-02-21T05:57:12;20.97;;;8.13;;
84084;SDS011;74175;41.730;44.734;2024-02-21T05:59:38;22.80;;;8.93;;
84084;SDS011;74175;41.730;44.734;2024-02-21T06:02:05;16.00;;;6.53;;
84084;SDS011;74175;41.730;44.734;2024-02-21T06:04:31;19.13;;;8.30;;
84084;SDS011;74175;41.730;44.734;2024-02-21T06:06:58;20.05;;;7.32;;
84084;SDS011;74175;41.730;44.734;2024-02-21T06:09:24;19.15;;;8.18;;
84084;SDS011;74175;41.730;44.734;2024-02-21T06:11:50;17.97;;;7.20;;
84084;SDS011;74175;41.730;44.734;2024-02-21T06:14:16;22.25;;;8.73;;
84084;SDS011;74175;41.730;44.734;2024-02-21T06:16:45;25.65;;;9.52;;
84084;SDS011;74175;41.730;44.734;2024-02-21T06:19:11;20.52;;;7.85;;
84084;SDS011;74175;41.730;44.734;2024-02-21T06:21:37;22.42;;;8.38;;
84084;SDS011;74175;41.730;44.734;2024-02-21T06:24:04;19.42;;;7.47;;
84084;SDS011;74175;41.730;44.734;2024-02-21T06:26:30;17.90;;;7.33;;
84084;SDS011;74175;41.730;44.734;2024-02-21T06:28:56;14.10;;;6.07;;
84084;SDS011;74175;41.730;44.734;2024-02-21T06:31:22;31.95;;;10.80;;
84084;SDS011;74175;41.730;44.734;2024-02-21T06:33:48;19.15;;;7.22;;
84084;SDS011;74175;41.730;44.734;2024-02-21T06:36:14;21.02;;;8.25;;
84084;SDS011;74175;41.730;44.734;2024-02-21T06:38:40;19.70;;;8.10;;
84084;SDS011;74175;41.730;44.734;2024-02-21T06:41:14;20.40;;;7.90;;
84084;SDS011;74175;41.730;44.734;2024-02-21T06:43:41;17.60;;;6.47;;
84084;SDS011;74175;41.730;44.734;2024-02-21T06:46:07;20.77;;;8.63;;
84084;SDS011;74175;41.730;44.734;2024-02-21T06:48:34;20.13;;;8.13;;
84084;SDS011;74175;41.730;44.734;2024-02-21T06:51:00;23.23;;;10.55;;
84084;SDS011;74175;41.730;44.734;2024-02-21T06:53:26;26.52;;;10.27;;
84084;SDS011;74175;41.730;44.734;2024-02-21T06:55:52;25.25;;;9.00;;
84084;SDS011;74175;41.730;44.734;2024-02-21T06:58:18;22.73;;;9.50;;
84084;SDS011;74175;41.730;44.734;2024-02-21T07:00:44;17.50;;;7.97;;
84084;SDS011;74175;41.730;44.734;2024-02-21T07:03:10;21.02;;;7.60;;
84084;SDS011;74175;41.730;44.734;2024-02-21T07:05:36;15.80;;;7.05;;
84084;SDS011;74175;41.730;44.734;2024-02-21T07:08:02;20.83;;;8.45;;
84084;SDS011;74175;41.730;44.734;2024-02-21T07:10:29;24.38;;;8.13;;
84084;SDS011;74175;41.730;44.734;2024-02-21T07:12:55;20.73;;;8.15;;
84084;SDS011;74175;41.730;44.734;2024-02-21T07:15:21;19.23;;;8.37;;
84084;SDS011;74175;41.730;44.734;2024-02-21T07:17:47;22.80;;;8.70;;
84084;SDS011;74175;41.730;44.734;2024-02-21T07:20:13;18.58;;;8.60;;
84084;SDS011;74175;41.730;44.734;2024-02-21T07:22:40;25.00;;;9.48;;
84084;SDS011;74175;41.730;44.734;2024-02-21T07:25:06;27.63;;;10.95;;
84084;SDS011;74175;41.730;44.734;2024-02-21T07:27:32;22.98;;;9.55;;
84084;SDS011;74175;41.730;44.734;2024-02-21T07:29:58;18.87;;;7.70;;
84084;SDS011;74175;41.730;44.734;2024-02-21T07:32:24;23.80;;;9.00;;
84084;SDS011;74175;41.730;44.734;2024-02-21T07:34:52;22.77;;;9.02;;
84084;SDS011;74175;41.730;44.734;2024-02-21T07:37:18;20.25;;;8.77;;
84084;SDS011;74175;41.730;44.734;2024-02-21T07:39:44;26.92;;;11.85;;
84084;SDS011;74175;41.730;44.734;2024-02-21T07:42:10;21.30;;;8.27;;
84084;SDS011;74175;41.730;44.734;2024-02-21T07:44:37;20.08;;;8.82;;
84084;SDS011;74175;41.730;44.734;2024-02-21T07:47:03;29.77;;;11.35;;
84084;SDS011;74175;41.730;44.734;2024-02-21T07:49:29;18.20;;;8.30;;
84084;SDS011;74175;41.730;44.734;2024-02-21T07:51:55;20.77;;;9.30;;
84084;SDS011;74175;41.730;44.734;2024-02-21T07:54:21;22.20;;;9.20;;
84084;SDS011;74175;41.730;44.734;2024-02-21T07:56:51;23.50;;;10.13;;
84084;SDS011;74175;41.730;44.734;2024-02-21T07:59:17;21.40;;;8.70;;
84084;SDS011;74175;41.730;44.734;2024-02-21T08:01:43;21.17;;;8.75;;
84084;SDS011;74175;41.730;44.734;2024-02-21T08:04:10;30.38;;;11.50;;
84084;SDS011;74175;41.730;44.734;2024-02-21T08:06:36;26.77;;;11.50;;
84084;SDS011;74175;41.730;44.734;2024-02-21T08:09:02;24.52;;;9.65;;
84084;SDS011;74175;41.730;44.734;2024-02-21T08:11:28;26.23;;;10.27;;
84084;SDS011;74175;41.730;44.734;2024-02-21T08:13:58;27.25;;;12.00;;
84084;SDS011;74175;41.730;44.734;2024-02-21T08:16:24;33.80;;;13.65;;
84084;SDS011;74175;41.730;44.734;2024-02-21T08:18:50;27.10;;;12.68;;
84084;SDS011;74175;41.730;44.734;2024-02-21T08:21:16;25.00;;;11.23;;
84084;SDS011;74175;41.730;44.734;2024-02-21T08:23:52;22.02;;;10.15;;
84084;SDS011;74175;41.730;44.734;2024-02-21T08:26:20;27.07;;;12.83;;
84084;SDS011;74175;41.730;44.734;2024-02-21T08:28:46;29.77;;;14.00;;
84084;SDS011;74175;41.730;44.734;2024-02-21T08:31:24;28.27;;;12.18;;
84084;SDS011;74175;41.730;44.734;2024-02-21T08:33:57;22.70;;;9.43;;
84084;SDS011;74175;41.730;44.734;2024-02-21T08:36:33;25.58;;;12.80;;
84084;SDS011;74175;41.730;44.734;2024-02-21T08:39:03;26.00;;;11.17;;
84084;SDS011;74175;41.730;44.734;2024-02-21T08:41:30;24.48;;;10.43;;
84084;SDS011;74175;41.730;44.734;2024-02-21T08:43:57;25.85;;;11.48;;
84084;SDS011;74175;41.730;44.734;2024-02-21T08:46:23;20.85;;;9.30;;
84084;SDS011;74175;41.730;44.734;2024-02-21T08:48:50;26.15;;;11.35;;
84084;SDS011;74175;41.730;44.734;2024-02-21T08:51:19;23.88;;;11.55;;
84084;SDS011;74175;41.730;44.734;2024-02-21T08:53:45;25.13;;;9.87;;
84084;SDS011;74175;41.730;44.734;2024-02-21T08:56:14;28.35;;;11.88;;
84084;SDS011;74175;41.730;44.734;2024-02-21T08:58:41;23.70;;;10.27;;
84084;SDS011;74175;41.730;44.734;2024-02-21T09:01:07;19.35;;;9.20;;
84084;SDS011;74175;41.730;44.734;2024-02-21T09:03:37;18.25;;;9.40;;
84084;SDS011;74175;41.730;44.734;2024-02-21T09:06:04;23.73;;;10.32;;
84084;SDS011;74175;41.730;44.734;2024-02-21T09:08:33;19.55;;;10.00;;
84084;SDS011;74175;41.730;44.734;2024-02-21T09:10:59;26.13;;;10.30;;
84084;SDS011;74175;41.730;44.734;2024-02-21T09:13:26;18.65;;;8.85;;
84084;SDS011;74175;41.730;44.734;2024-02-21T09:15:53;20.45;;;8.18;;
84084;SDS011;74175;41.730;44.734;2024-02-21T09:18:19;20.50;;;9.07;;
84084;SDS011;74175;41.730;44.734;2024-02-21T09:20:50;17.80;;;8.82;;
84084;SDS011;74175;41.730;44.734;2024-02-21T09:23:17;17.73;;;8.87;;
84084;SDS011;74175;41.730;44.734;2024-02-21T09:25:45;16.88;;;8.07;;
84084;SDS011;74175;41.730;44.734;2024-02-21T09:28:11;18.35;;;8.60;;
84084;SDS011;74175;41.730;44.734;2024-02-21T09:30:38;22.52;;;10.35;;
84084;SDS011;74175;41.730;44.734;2024-02-21T09:33:06;27.55;;;12.23;;
84084;SDS011;74175;41.730;44.734;2024-02-21T09:35:32;19.90;;;8.90;;
84084;SDS011;74175;41.730;44.734;2024-02-21T09:37:59;19.50;;;8.85;;
84084;SDS011;74175;41.730;44.734;2024-02-21T09:40:25;23.63;;;10.93;;
84084;SDS011;74175;41.730;44.734;2024-02-21T09:42:56;20.43;;;10.13;;
84084;SDS011;74175;41.730;44.734;2024-02-21T09:45:30;24.60;;;10.43;;
84084;SDS011;74175;41.730;44.734;2024-02-21T09:48:06;19.83;;;9.13;;
84084;SDS011;74175;41.730;44.734;2024-02-21T09:50:34;25.02;;;10.02;;
84084;SDS011;74175;41.730;44.734;2024-02-21T09:53:02;20.45;;;8.88;;
84084;SDS011;74175;41.730;44.734;2024-02-21T09:55:31;22.27;;;11.23;;
84084;SDS011;74175;41.730;44.734;2024-02-21T09:58:03;23.73;;;11.23;;
84084;SDS011;74175;41.730;44.734;2024-02-21T10:00:48;21.27;;;10.25;;
84084;SDS011;74175;41.730;44.734;2024-02-21T10:03:14;18.02;;;9.20;;
84084;SDS011;74175;41.730;44.734;2024-02-21T10:05:45;16.30;;;6.93;;
84084;SDS011;74175;41.730;44.734;2024-02-21T10:08:16;19.48;;;9.20;;
84084;SDS011;74175;41.730;44.734;2024-02-21T10:10:45;18.23;;;8.25;;
84084;SDS011;74175;41.730;44.734;2024-02-21T10:13:30;21.87;;;8.83;;
84084;SDS011;74175;41.730;44.734;2024-02-21T10:18:34;16.00;;;8.27;;
84084;SDS011;74175;41.730;44.734;2024-02-21T10:21:01;16.13;;;7.60;;
84084;SDS011;74175;41.730;44.734;2024-02-21T10:23:44;17.35;;;7.18;;
84084;SDS011;74175;41.730;44.734;2024-02-21T10:26:11;15.57;;;7.25;;
84084;SDS011;74175;41.730;44.734;2024-02-21T10:28:38;13.77;;;6.83;;
84084;SDS011;74175;41.730;44.734;2024-02-21T10:31:08;18.50;;;6.82;;
84084;SDS011;74175;41.730;44.734;2024-02-21T10:33:35;13.77;;;6.50;;
84084;SDS011;74175;41.730;44.734;2024-02-21T10:36:09;18.35;;;8.60;;
84084;SDS011;74175;41.730;44.734;2024-02-21T10:38:37;15.82;;;6.75;;
84084;SDS011;74175;41.730;44.734;2024-02-21T10:41:07;15.02;;;7.35;;
84084;SDS011;74175;41.730;44.734;2024-02-21T10:43:38;13.13;;;5.70;;
84084;SDS011;74175;41.730;44.734;2024-02-21T10:46:08;13.53;;;5.97;;
84084;SDS011;74175;41.730;44.734;2024-02-21T10:48:43;13.38;;;6.03;;
84084;SDS011;74175;41.730;44.734;2024-02-21T10:53:43;15.80;;;7.20;;
84084;SDS011;74175;41.730;44.734;2024-02-21T10:56:21;15.40;;;7.10;;
84084;SDS011;74175;41.730;44.734;2024-02-21T10:58:53;13.85;;;6.15;;
84084;SDS011;74175;41.730;44.734;2024-02-21T11:01:20;13.80;;;5.82;;
84084;SDS011;74175;41.730;44.734;2024-02-21T11:03:47;14.52;;;6.38;;
84084;SDS011;74175;41.730;44.734;2024-02-21T11:06:15;14.00;;;5.27;;
84084;SDS011;74175;41.730;44.734;2024-02-21T11:08:42;12.25;;;5.55;;
84084;SDS011;74175;41.730;44.734;2024-02-21T11:11:08;11.88;;;5.10;;
84084;SDS011;74175;41.730;44.734;2024-02-21T11:13:36;10.48;;;4.63;;
84084;SDS011;74175;41.730;44.734;2024-02-21T11:16:09;17.65;;;7.95;;
84084;SDS011;74175;41.730;44.734;2024-02-21T11:18:39;13.00;;;5.55;;
84084;SDS011;74175;41.730;44.734;2024-02-21T11:21:06;15.35;;;7.13;;
84084;SDS011;74175;41.730;44.734;2024-02-21T11:23:32;13.30;;;5.93;;
84084;SDS011;74175;41.730;44.734;2024-02-21T11:26:08;14.63;;;6.63;;
84084;SDS011;74175;41.730;44.734;2024-02-21T11:28:34;13.93;;;5.80;;
84084;SDS011;74175;41.730;44.734;2024-02-21T11:31:06;22.30;;;9.13;;
84084;SDS011;74175;41.730;44.734;2024-02-21T11:33:40;13.70;;;5.65;;
84084;SDS011;74175;41.730;44.734;2024-02-21T11:36:10;15.50;;;6.60;;
84084;SDS011;74175;41.730;44.734;2024-02-21T11:38:48;13.77;;;6.47;;
84084;SDS011;74175;41.730;44.734;2024-02-21T11:41:15;14.88;;;6.90;;
84084;SDS011;74175;41.730;44.734;2024-02-21T11:43:41;13.25;;;4.80;;
84084;SDS011;74175;41.730;44.734;2024-02-21T11:46:07;13.85;;;5.80;;
84084;SDS011;74175;41.730;44.734;2024-02-21T11:48:33;12.75;;;5.80;;
84084;SDS011;74175;41.730;44.734;2024-02-21T11:51:10;11.47;;;5.03;;
84084;SDS011;74175;41.730;44.734;2024-02-21T11:53:36;14.80;;;6.22;;
84084;SDS011;74175;41.730;44.734;2024-02-21T11:56:02;15.95;;;6.22;;
84084;SDS011;74175;41.730;44.734;2024-02-21T11:58:29;11.80;;;4.90;;
84084;SDS011;74175;41.730;44.734;2024-02-21T12:00:57;9.77;;;4.70;;
84084;SDS011;74175;41.730;44.734;2024-02-21T12:03:24;14.35;;;5.47;;
84084;SDS011;74175;41.730;44.734;2024-02-21T12:05:50;12.23;;;5.10;;
84084;SDS011;74175;41.730;44.734;2024-02-21T12:08:16;11.15;;;4.90;;
84084;SDS011;74175;41.730;44.734;2024-02-21T12:10:44;10.00;;;4.10;;
84084;SDS011;74175;41.730;44.734;2024-02-21T12:13:10;11.80;;;5.00;;
84084;SDS011;74175;41.730;44.734;2024-02-21T12:15:40;11.02;;;4.70;;
84084;SDS011;74175;41.730;44.734;2024-02-21T12:18:06;10.60;;;5.15;;
84084;SDS011;74175;41.730;44.734;2024-02-21T12:20:32;13.37;;;5.33;;
84084;SDS011;74175;41.730;44.734;2024-02-21T12:23:02;14.13;;;6.10;;
84084;SDS011;74175;41.730;44.734;2024-02-21T12:25:29;10.68;;;4.57;;
84084;SDS011;74175;41.730;44.734;2024-02-21T12:27:56;10.48;;;4.00;;
84084;SDS011;74175;41.730;44.734;2024-02-21T12:30:22;13.65;;;6.05;;
84084;SDS011;74175;41.730;44.734;2024-02-21T12:32:48;13.88;;;6.22;;
84084;SDS011;74175;41.730;44.734;2024-02-21T12:35:14;15.00;;;5.70;;
84084;SDS011;74175;41.730;44.734;2024-02-21T12:37:41;15.53;;;6.03;;
84084;SDS011;74175;41.730;44.734;2024-02-21T12:40:09;12.23;;;4.83;;
84084;SDS011;74175;41.730;44.734;2024-02-21T12:42:37;10.88;;;4.70;;
84084;SDS011;74175;41.730;44.734;2024-02-21T12:45:03;14.02;;;6.40;;
84084;SDS011;74175;41.730;44.734;2024-02-21T12:47:29;12.52;;;5.40;;
84084;SDS011;74175;41.730;44.734;2024-02-21T12:50:01;13.95;;;5.57;;
84084;SDS011;74175;41.730;44.734;2024-02-21T12:52:29;11.52;;;5.03;;
84084;SDS011;74175;41.730;44.734;2024-02-21T12:54:55;9.77;;;4.60;;
84084;SDS011;74175;41.730;44.734;2024-02-21T12:57:24;13.20;;;5.60;;
84084;SDS011;74175;41.730;44.734;2024-02-21T12:59:50;11.38;;;5.30;;
84084;SDS011;74175;41.730;44.734;2024-02-21T13:02:16;17.77;;;7.55;;
84084;SDS011;74175;41.730;44.734;2024-02-21T13:04:46;15.30;;;6.85;;
84084;SDS011;74175;41.730;44.734;2024-02-21T13:07:12;15.57;;;7.40;;
84084;SDS011;74175;41.730;44.734;2024-02-21T13:09:38;15.65;;;5.72;;
84084;SDS011;74175;41.730;44.734;2024-02-21T13:12:06;8.47;;;3.70;;
84084;SDS011;74175;41.730;44.734;2024-02-21T13:14:32;12.40;;;5.38;;
84084;SDS011;74175;41.730;44.734;2024-02-21T13:17:00;10.80;;;5.00;;
84084;SDS011;74175;41.730;44.734;2024-02-21T13:19:26;13.20;;;5.75;;
84084;SDS011;74175;41.730;44.734;2024-02-21T13:21:53;14.45;;;5.60;;
84084;SDS011;74175;41.730;44.734;2024-02-21T13:24:19;11.93;;;5.53;;
84084;SDS011;74175;41.730;44.734;2024-02-21T13:26:45;18.43;;;8.03;;
84084;SDS011;74175;41.730;44.734;2024-02-21T13:29:11;15.23;;;6.65;;
84084;SDS011;74175;41.730;44.734;2024-02-21T13:31:37;11.20;;;4.95;;
84084;SDS011;74175;41.730;44.734;2024-02-21T13:34:04;18.98;;;7.28;;
84084;SDS011;74175;41.730;44.734;2024-02-21T13:36:30;14.07;;;6.32;;
84084;SDS011;74175;41.730;44.734;2024-02-21T13:38:56;12.17;;;6.27;;
84084;SDS011;74175;41.730;44.734;2024-02-21T13:41:22;11.93;;;5.28;;
84084;SDS011;74175;41.730;44.734;2024-02-21T13:43:50;13.38;;;5.72;;
84084;SDS011;74175;41.730;44.734;2024-02-21T13:46:16;13.10;;;5.90;;
84084;SDS011;74175;41.730;44.734;2024-02-21T13:48:42;15.18;;;6.15;;
84084;SDS011;74175;41.730;44.734;2024-02-21T13:51:08;13.47;;;5.80;;
84084;SDS011;74175;41.730;44.734;2024-02-21T13:53:34;11.63;;;5.25;;
84084;SDS011;74175;41.730;44.734;2024-02-21T13:56:00;14.15;;;6.32;;
84084;SDS011;74175;41.730;44.734;2024-02-21T13:58:27;14.02;;;5.95;;
84084;SDS011;74175;41.730;44.734;2024-02-21T14:00:53;12.90;;;6.00;;
84084;SDS011;74175;41.730;44.734;2024-02-21T14:03:19;14.52;;;6.15;;
84084;SDS011;74175;41.730;44.734;2024-02-21T14:05:45;14.33;;;5.87;;
84084;SDS011;74175;41.730;44.734;2024-02-21T14:08:14;13.05;;;5.88;;
84084;SDS011;74175;41.730;44.734;2024-02-21T14:10:40;15.88;;;7.22;;
84084;SDS011;74175;41.730;44.734;2024-02-21T14:13:06;16.85;;;6.88;;
84084;SDS011;74175;41.730;44.734;2024-02-21T14:15:32;14.38;;;6.32;;
84084;SDS011;74175;41.730;44.734;2024-02-21T14:17:59;13.02;;;5.50;;
84084;SDS011;74175;41.730;44.734;2024-02-21T14:20:27;12.70;;;5.90;;
84084;SDS011;74175;41.730;44.734;2024-02-21T14:22:53;14.67;;;6.70;;
84084;SDS011;74175;41.730;44.734;2024-02-21T14:25:19;14.32;;;5.93;;
84084;SDS011;74175;41.730;44.734;2024-02-21T14:27:45;18.23;;;8.43;;
84084;SDS011;74175;41.730;44.734;2024-02-21T14:30:11;16.02;;;6.70;;
84084;SDS011;74175;41.730;44.734;2024-02-21T14:32:39;12.52;;;5.45;;
84084;SDS011;74175;41.730;44.734;2024-02-21T14:35:09;14.85;;;6.97;;
84084;SDS011;74175;41.730;44.734;2024-02-21T14:37:35;15.50;;;6.67;;
84084;SDS011;74175;41.730;44.734;2024-02-21T14:40:01;20.50;;;8.38;;
84084;SDS011;74175;41.730;44.734;2024-02-21T14:42:27;19.45;;;7.30;;
84084;SDS011;74175;41.730;44.734;2024-02-21T14:44:54;20.73;;;7.22;;